KBED/BED METAR and TAF weather

Enter ICAO airport designator
Station Type Date Time Source
KBED METAR 2020/01/21 18:51 UTC NOAA

KBED 211851Z VRB03KT 10SM SCT250 M04/M18 A3037 RMK AO2 SLP301 T10391183


Station Type Date Time Source
KBED Decoded METAR 2020/01/21 18:51 UTC NOAA

BEDFORD HANSCOM FIELD, MA, United States (KBED) 42-28N 071-18W 50M
Jan 21, 2020 - 01:51 PM EST / 2020.01.21 1851 UTC
Wind: Variable at 3 MPH (3 KT):0
Visibility: 10 mile(s):0
Sky conditions: partly cloudy
Temperature: 25.0 F (-3.9 C)
Dew Point: -0.9 F (-18.3 C)
Relative Humidity: 31%
Pressure (altimeter): 30.37 in. Hg (1028 hPa)
ob: KBED 211851Z VRB03KT 10SM SCT250 M04/M18 A3037 RMK AO2 SLP301 T10391183
cycle: 19

Station Type Date Time Source
KBED TAF 2020/01/21 18:40 UTC NOAA

TAF KBED 211737Z 2118/2218 33004KT P6SM SCT250
FM212200 00000KT P6SM SCT120
FM221500 28005KT P6SM SKC

Example: see airport list